createdAt,value
2022-09-23T00:01:08.960Z,101854.94
2022-09-23T00:03:38.443Z,101859.41
2022-09-23T00:06:08.178Z,101853.50
2022-09-23T00:08:35.280Z,101853.00
2022-09-23T00:11:15.123Z,101849.91
2022-09-23T00:13:44.508Z,101843.16
2022-09-23T00:16:14.331Z,101840.66
2022-09-23T00:18:42.029Z,101844.28
2022-09-23T00:21:12.317Z,101842.56
2022-09-23T00:23:40.607Z,101835.78
2022-09-23T00:26:08.945Z,101831.44
2022-09-23T00:28:36.516Z,101837.00
2022-09-23T00:31:12.632Z,101834.13
2022-09-23T00:33:40.805Z,101833.38
2022-09-23T00:36:11.986Z,101830.03
2022-09-23T00:38:39.269Z,101825.53
2022-09-23T00:41:06.464Z,101824.22
2022-09-23T00:43:53.792Z,101822.53
2022-09-23T00:46:43.663Z,101825.22
2022-09-23T00:49:21.873Z,101815.81
2022-09-23T00:51:55.288Z,101810.09
2022-09-23T00:54:26.327Z,101813.53
2022-09-23T00:56:54.238Z,101811.88
2022-09-23T00:59:21.806Z,101807.53
2022-09-23T01:01:50.036Z,101802.78
2022-09-23T01:04:16.693Z,101803.16
2022-09-23T01:06:43.248Z,101804.91
2022-09-23T01:09:09.852Z,101801.66
2022-09-23T01:11:43.901Z,101799.88
2022-09-23T01:14:16.721Z,101790.53
2022-09-23T01:16:45.895Z,101791.56
2022-09-23T01:19:27.730Z,101796.69
2022-09-23T01:22:01.359Z,101785.22
2022-09-23T01:24:46.725Z,101785.22
2022-09-23T01:27:20.440Z,101778.84
2022-09-23T01:30:05.771Z,101781.34
2022-09-23T01:32:46.967Z,101781.69
2022-09-23T01:35:25.943Z,101775.75
2022-09-23T01:38:06.553Z,101772.84
2022-09-23T01:41:08.916Z,101769.31
2022-09-23T01:44:05.720Z,101766.31
2022-09-23T01:46:48.360Z,101768.72
2022-09-23T01:49:33.180Z,101767.16
2022-09-23T01:52:07.812Z,101769.31
2022-09-23T01:54:42.396Z,101765.47
2022-09-23T01:57:22.739Z,101760.34
2022-09-23T02:00:08.909Z,101753.06
2022-09-23T02:02:49.926Z,101753.63
2022-09-23T02:05:26.047Z,101752.00
2022-09-23T02:08:03.258Z,101749.34
2022-09-23T02:10:37.470Z,101735.81
2022-09-23T02:13:09.932Z,101740.81
2022-09-23T02:15:46.861Z,101747.91
2022-09-23T02:18:18.524Z,101738.66
2022-09-23T02:20:47.417Z,101746.00
2022-09-23T02:23:27.885Z,101734.31
2022-09-23T02:26:07.459Z,101735.91
2022-09-23T02:28:52.499Z,101729.66
2022-09-23T02:31:34.274Z,101727.47
2022-09-23T02:34:24.126Z,101727.84
2022-09-23T02:37:08.095Z,101725.50
2022-09-23T02:39:51.693Z,101726.06
2022-09-23T02:42:24.940Z,101721.84
2022-09-23T02:44:51.615Z,101731.31
2022-09-23T02:47:24.205Z,101728.81
2022-09-23T02:49:50.809Z,101723.47
2022-09-23T02:52:17.450Z,101729.06
2022-09-23T02:54:44.344Z,101727.91
2022-09-23T02:57:10.878Z,101730.97
2022-09-23T02:59:38.492Z,101725.56
2022-09-23T03:02:13.661Z,101720.69
2022-09-23T03:05:03.915Z,101724.41
2022-09-23T03:07:50.002Z,101722.06
2022-09-23T03:10:25.776Z,101712.44
2022-09-23T03:13:04.864Z,101720.75
2022-09-23T03:15:53.584Z,101710.75
2022-09-23T03:18:44.958Z,101707.84
2022-09-23T03:21:17.395Z,101699.34
2022-09-23T03:23:46.531Z,101693.13
2022-09-23T03:26:20.182Z,101696.00
2022-09-23T03:28:47.561Z,101686.38
2022-09-23T03:31:16.291Z,101690.59
2022-09-23T03:33:50.298Z,101685.31
2022-09-23T03:36:40.165Z,101675.69
2022-09-23T03:39:10.544Z,101680.78
2022-09-23T03:41:49.330Z,101684.50
2022-09-23T03:44:17.231Z,101676.41
2022-09-23T03:46:49.959Z,101674.72
2022-09-23T03:49:22.985Z,101677.13
2022-09-23T03:51:50.037Z,101677.13
2022-09-23T03:54:17.757Z,101680.84
2022-09-23T03:56:44.243Z,101678.81
2022-09-23T03:59:10.798Z,101676.94
2022-09-23T04:01:37.307Z,101670.31
2022-09-23T04:04:03.950Z,101661.91
2022-09-23T04:06:30.570Z,101657.66
2022-09-23T04:08:58.479Z,101655.44
2022-09-23T04:11:25.028Z,101649.97
2022-09-23T04:13:51.582Z,101658.38
2022-09-23T04:16:18.214Z,101649.06
2022-09-23T04:18:45.028Z,101657.66
2022-09-23T04:21:11.707Z,101645.13
2022-09-23T04:23:38.228Z,101640.75
2022-09-23T04:26:05.775Z,101641.59
2022-09-23T04:28:32.719Z,101639.19
2022-09-23T04:30:59.402Z,101629.97
2022-09-23T04:33:26.046Z,101639.59
2022-09-23T04:35:52.881Z,101634.47
2022-09-23T04:38:19.906Z,101632.41
2022-09-23T04:40:46.764Z,101628.03
2022-09-23T04:43:15.972Z,101639.50
2022-09-23T04:45:43.778Z,101633.25
2022-09-23T04:48:11.561Z,101631.19
2022-09-23T04:50:38.330Z,101629.06
2022-09-23T04:53:05.100Z,101628.78
2022-09-23T04:55:32.088Z,101634.53
2022-09-23T04:57:58.910Z,101629.88
2022-09-23T05:00:28.604Z,101625.28
2022-09-23T05:02:55.530Z,101618.69
2022-09-23T05:05:23.699Z,101612.88
2022-09-23T05:07:51.305Z,101623.53
2022-09-23T05:10:17.942Z,101620.66
2022-09-23T05:12:46.655Z,101623.16
2022-09-23T05:15:15.215Z,101610.94
2022-09-23T05:17:43.106Z,101620.94
2022-09-23T05:20:11.132Z,101616.44
2022-09-23T05:22:37.899Z,101619.28
2022-09-23T05:25:04.732Z,101619.09
2022-09-23T05:27:31.392Z,101619.56
2022-09-23T05:29:58.006Z,101619.75
2022-09-23T05:32:24.597Z,101630.19
2022-09-23T05:34:51.159Z,101621.69
2022-09-23T05:37:17.665Z,101618.63
2022-09-23T05:39:44.570Z,101622.66
2022-09-23T05:42:12.395Z,101615.84
2022-09-23T05:44:39.357Z,101617.91
2022-09-23T05:47:06.168Z,101612.84
2022-09-23T05:49:55.179Z,101616.03
2022-09-23T05:52:19.354Z,101621.72
2022-09-23T05:54:46.089Z,101609.69
2022-09-23T05:57:12.698Z,101618.06
2022-09-23T05:59:39.813Z,101612.47
2022-09-23T06:02:06.791Z,101613.31
2022-09-23T06:04:33.440Z,101609.41
2022-09-23T06:07:03.367Z,101608.19
2022-09-23T06:09:35.545Z,101618.81
2022-09-23T06:12:03.632Z,101604.69
2022-09-23T06:14:30.376Z,101606.03
2022-09-23T06:16:56.928Z,101611.06
2022-09-23T06:19:23.573Z,101611.88
2022-09-23T06:21:50.136Z,101611.06
2022-09-23T06:24:20.405Z,101612.16
2022-09-23T06:26:49.252Z,101614.03
2022-09-23T06:29:16.254Z,101614.50
2022-09-23T06:31:43.453Z,101614.97
2022-09-23T06:34:13.383Z,101616.63
2022-09-23T06:36:45.822Z,101614.59
2022-09-23T06:39:16.799Z,101619.59
2022-09-23T06:41:44.803Z,101617.88
2022-09-23T06:44:11.657Z,101609.81
2022-09-23T06:46:38.397Z,101619.06
2022-09-23T06:49:04.970Z,101618.25
2022-09-23T06:51:31.494Z,101611.31
2022-09-23T06:53:58.207Z,101611.91
2022-09-23T06:56:24.833Z,101609.13
2022-09-23T06:58:52.622Z,101616.56
2022-09-23T07:01:19.945Z,101607.28
2022-09-23T07:03:48.430Z,101610.34
2022-09-23T07:06:15.703Z,101614.28
2022-09-23T07:08:44.922Z,101620.91
2022-09-23T07:11:13.220Z,101619.34
2022-09-23T07:13:41.273Z,101621.31
2022-09-23T07:16:08.970Z,101623.66
2022-09-23T07:18:37.342Z,101617.00
2022-09-23T07:21:16.031Z,101619.34
2022-09-23T07:23:44.298Z,101617.91
2022-09-23T07:26:11.159Z,101628.41
2022-09-23T07:28:38.743Z,101628.16
2022-09-23T07:31:08.968Z,101626.03
2022-09-23T07:33:36.856Z,101626.81
2022-09-23T07:36:08.949Z,101636.41
2022-09-23T07:38:37.425Z,101626.06
2022-09-23T07:41:10.846Z,101632.09
2022-09-23T07:43:38.678Z,101626.81
2022-09-23T07:46:09.726Z,101630.34
2022-09-23T07:48:37.458Z,101633.47
2022-09-23T07:51:19.126Z,101628.81
2022-09-23T07:53:51.307Z,101632.81
2022-09-23T07:56:22.070Z,101631.53
2022-09-23T07:59:03.726Z,101623.47
2022-09-23T08:01:39.576Z,101627.88
2022-09-23T08:04:10.876Z,101633.16
2022-09-23T08:06:44.047Z,101630.38
2022-09-23T08:09:11.300Z,101626.06
2022-09-23T08:11:42.125Z,101625.38
2022-09-23T08:14:13.926Z,101630.28
2022-09-23T08:16:41.827Z,101624.84
2022-09-23T08:19:08.908Z,101625.41
2022-09-23T08:21:35.726Z,101620.25
2022-09-23T08:24:02.563Z,101621.69
2022-09-23T08:26:29.119Z,101616.00
2022-09-23T08:28:56.531Z,101612.50
2022-09-23T08:31:24.179Z,101619.50
2022-09-23T08:33:55.760Z,101614.34
2022-09-23T08:36:23.013Z,101611.31
2022-09-23T08:38:49.556Z,101610.75
2022-09-23T08:41:49.616Z,101618.44
2022-09-23T08:44:37.991Z,101606.78
2022-09-23T08:47:11.821Z,101610.00
2022-09-23T08:49:44.499Z,101612.84
2022-09-23T08:52:23.446Z,101610.50
2022-09-23T08:54:55.124Z,101606.09
2022-09-23T08:58:23.347Z,101606.53
2022-09-23T09:00:47.556Z,101603.66
2022-09-23T09:03:22.584Z,101609.81
2022-09-23T09:05:54.458Z,101601.59
2022-09-23T09:08:33.609Z,101600.25
2022-09-23T09:11:00.960Z,101597.63
2022-09-23T09:13:43.259Z,101594.56
2022-09-23T09:16:36.351Z,101590.97
2022-09-23T09:19:12.741Z,101596.22
2022-09-23T09:21:42.624Z,101596.22
2022-09-23T09:24:30.872Z,101590.59
2022-09-23T09:26:57.466Z,101587.81
2022-09-23T09:29:35.304Z,101594.91
2022-09-23T09:32:19.107Z,101588.53
2022-09-23T09:34:54.687Z,101580.72
2022-09-23T09:37:37.426Z,101576.47
2022-09-23T09:40:04.240Z,101579.00
2022-09-23T09:42:39.947Z,101568.94
2022-09-23T09:45:26.349Z,101574.16
2022-09-23T09:48:15.031Z,101566.63
2022-09-23T09:50:47.288Z,101564.50
2022-09-23T09:53:29.552Z,101572.41
2022-09-23T09:56:05.015Z,101567.50
2022-09-23T09:58:44.355Z,101562.25
2022-09-23T10:01:22.374Z,101552.63
2022-09-23T10:03:56.946Z,101552.41
2022-09-23T10:06:28.715Z,101549.28
2022-09-23T10:09:04.676Z,101552.53
2022-09-23T10:11:33.207Z,101549.91
2022-09-23T10:14:00.383Z,101550.25
2022-09-23T10:16:28.362Z,101552.28
2022-09-23T10:18:57.011Z,101549.66
2022-09-23T10:21:28.006Z,101549.56
2022-09-23T10:23:58.631Z,101543.88
2022-09-23T10:26:37.577Z,101545.66
2022-09-23T10:29:23.183Z,101550.03
2022-09-23T10:31:54.009Z,101540.09
2022-09-23T10:34:27.474Z,101539.13
2022-09-23T10:37:01.983Z,101541.28
2022-09-23T10:39:47.494Z,101538.25
2022-09-23T10:43:13.253Z,101541.69
2022-09-23T10:45:59.661Z,101535.34
2022-09-23T10:49:08.992Z,101537.13
2022-09-23T10:52:19.734Z,101535.97
2022-09-23T10:55:18.317Z,101537.91
2022-09-23T10:57:45.116Z,101528.53
2022-09-23T11:00:26.866Z,101525.59
2022-09-23T11:03:12.487Z,101527.66
2022-09-23T11:05:56.363Z,101532.66
2022-09-23T11:08:36.462Z,101530.38
2022-09-23T11:11:42.040Z,101515.97
2022-09-23T11:14:20.783Z,101528.09
2022-09-23T11:17:19.590Z,101532.25
2022-09-23T11:20:26.317Z,101517.41
2022-09-23T11:23:03.296Z,101516.03
2022-09-23T11:25:58.095Z,101514.88
2022-09-23T11:28:58.698Z,101517.69
2022-09-23T11:31:40.558Z,101514.63
2022-09-23T11:34:14.304Z,101500.63
2022-09-23T11:36:52.379Z,101501.59
2022-09-23T11:39:57.441Z,101496.59
2022-09-23T11:42:32.922Z,101495.66
2022-09-23T11:45:15.100Z,101489.06
2022-09-23T11:47:57.111Z,101485.19
2022-09-23T11:50:32.188Z,101480.19
2022-09-23T11:53:09.227Z,101483.19
2022-09-23T11:55:57.788Z,101478.59
2022-09-23T11:58:32.251Z,101478.06
2022-09-23T12:01:09.472Z,101480.34
2022-09-23T12:03:44.711Z,101473.06
2022-09-23T12:06:32.220Z,101471.75
2022-09-23T12:09:12.750Z,101466.88
2022-09-23T12:12:26.317Z,101471.13
2022-09-23T12:15:21.131Z,101467.09
2022-09-23T12:17:57.187Z,101468.25
2022-09-23T12:20:35.825Z,101461.97
2022-09-23T12:23:08.961Z,101459.53
2022-09-23T12:25:50.142Z,101457.06
2022-09-23T12:28:35.702Z,101452.06
2022-09-23T12:31:04.892Z,101452.97
2022-09-23T12:33:36.829Z,101462.94
2022-09-23T12:36:08.650Z,101449.94
2022-09-23T12:38:35.105Z,101464.03
2022-09-23T12:41:08.985Z,101454.88
2022-09-23T12:43:35.687Z,101451.91
2022-09-23T12:46:25.733Z,101447.50
2022-09-23T12:48:58.314Z,101443.06
2022-09-23T12:51:26.907Z,101447.53
2022-09-23T12:54:05.833Z,101435.59
2022-09-23T12:56:38.962Z,101435.88
2022-09-23T12:59:23.562Z,101431.72
2022-09-23T13:01:50.290Z,101432.00
2022-09-23T13:04:47.850Z,101433.13
2022-09-23T13:07:23.169Z,101433.41
2022-09-23T13:09:52.408Z,101430.34
2022-09-23T13:12:29.612Z,101431.72
2022-09-23T13:15:03.259Z,101426.47
2022-09-23T13:17:37.332Z,101429.53
2022-09-23T13:20:36.573Z,101425.66
2022-09-23T13:23:06.072Z,101423.16
2022-09-23T13:25:39.241Z,101418.75
2022-09-23T13:28:19.447Z,101414.06
2022-09-23T13:30:52.239Z,101417.09
2022-09-23T13:33:39.019Z,101411.53
2022-09-23T13:36:15.462Z,101401.59
2022-09-23T13:38:42.195Z,101403.00
2022-09-23T13:41:14.993Z,101402.72
2022-09-23T13:44:03.515Z,101396.41
2022-09-23T13:46:43.234Z,101397.50
2022-09-23T13:49:24.472Z,101401.06
2022-09-23T13:51:54.393Z,101390.63
2022-09-23T13:54:49.106Z,101389.53
2022-09-23T13:57:29.423Z,101389.25
2022-09-23T14:00:16.484Z,101396.13
2022-09-23T14:02:44.074Z,101397.53
2022-09-23T14:05:14.187Z,101392.56
2022-09-23T14:07:40.891Z,101384.28
2022-09-23T14:10:08.248Z,101376.53
2022-09-23T14:12:39.338Z,101376.22
2022-09-23T14:15:07.226Z,101375.69
2022-09-23T14:17:33.819Z,101376.22
2022-09-23T14:20:01.115Z,101372.63
2022-09-23T14:22:29.347Z,101370.13
2022-09-23T14:24:57.492Z,101361.84
2022-09-23T14:27:29.912Z,101362.13
2022-09-23T14:29:57.284Z,101363.47
2022-09-23T14:32:28.236Z,101352.69
2022-09-23T14:35:00.960Z,101363.47
2022-09-23T14:37:48.423Z,101354.63
2022-09-23T14:40:25.490Z,101353.81
2022-09-23T14:43:02.329Z,101350.19
2022-09-23T14:45:36.376Z,101350.19
2022-09-23T14:48:14.447Z,101349.59
2022-09-23T14:50:48.485Z,101346.03
2022-09-23T14:53:24.361Z,101351.22
2022-09-23T14:55:57.439Z,101354.22
2022-09-23T14:58:30.576Z,101352.81
2022-09-23T15:01:01.335Z,101347.00
2022-09-23T15:03:28.847Z,101345.59
2022-09-23T15:06:05.132Z,101345.84
2022-09-23T15:08:35.796Z,101340.59
2022-09-23T15:11:08.353Z,101340.28
2022-09-23T15:13:49.508Z,101338.88
2022-09-23T15:16:24.281Z,101335.53
2022-09-23T15:18:55.332Z,101330.00
2022-09-23T15:21:23.332Z,101333.25
2022-09-23T15:23:56.078Z,101329.41
2022-09-23T15:26:25.794Z,101326.38
2022-09-23T15:28:55.955Z,101327.22
2022-09-23T15:31:26.650Z,101323.88
2022-09-23T15:33:53.355Z,101321.72
2022-09-23T15:36:21.458Z,101325.56
2022-09-23T15:38:48.524Z,101324.97
2022-09-23T15:41:17.169Z,101319.16
2022-09-23T15:43:43.947Z,101320.78
2022-09-23T15:46:25.453Z,101326.03
2022-09-23T15:49:05.697Z,101322.41
2022-09-23T15:51:32.354Z,101323.19
2022-09-23T15:53:58.955Z,101332.78
2022-09-23T15:56:27.262Z,101332.50
2022-09-23T15:58:54.231Z,101328.59
2022-09-23T16:01:24.118Z,101328.47
2022-09-23T16:03:50.947Z,101323.47
2022-09-23T16:06:18.021Z,101323.16
2022-09-23T16:08:44.584Z,101322.81
2022-09-23T16:11:27.002Z,101316.44
2022-09-23T16:13:53.706Z,101318.88
2022-09-23T16:16:28.449Z,101310.03
2022-09-23T16:18:55.587Z,101308.56
2022-09-23T16:21:25.694Z,101307.91
2022-09-23T16:23:53.532Z,101308.66
2022-09-23T16:26:22.087Z,101303.91
2022-09-23T16:28:50.476Z,101302.94
2022-09-23T16:31:17.909Z,101296.31
2022-09-23T16:33:46.093Z,101296.84
2022-09-23T16:36:21.861Z,101297.34
2022-09-23T16:38:49.034Z,101298.88
2022-09-23T16:41:15.887Z,101289.41
2022-09-23T16:43:42.434Z,101293.69
2022-09-23T16:46:12.427Z,101286.94
2022-09-23T16:48:40.889Z,101290.47
2022-09-23T16:51:13.304Z,101298.31
2022-09-23T16:53:39.879Z,101297.28
2022-09-23T16:56:10.965Z,101295.53
2022-09-23T16:58:38.647Z,101294.88
2022-09-23T17:01:25.998Z,101292.31
2022-09-23T17:03:53.362Z,101294.66
2022-09-23T17:06:20.366Z,101289.09
2022-09-23T17:08:51.068Z,101298.91
2022-09-23T17:11:17.920Z,101302.91
2022-09-23T17:13:44.565Z,101299.72
2022-09-23T17:16:21.399Z,101302.13
2022-09-23T17:18:48.030Z,101308.38
2022-09-23T17:21:14.667Z,101299.72
2022-09-23T17:23:41.231Z,101292.72
2022-09-23T17:26:10.020Z,101296.44
2022-09-23T17:28:36.622Z,101300.75
2022-09-23T17:31:04.796Z,101289.94
2022-09-23T17:33:33.638Z,101284.38
2022-09-23T17:36:00.311Z,101294.13
2022-09-23T17:38:29.378Z,101294.63
2022-09-23T17:40:57.676Z,101288.81
2022-09-23T17:43:25.909Z,101290.63
2022-09-23T17:45:54.636Z,101285.06
2022-09-23T17:48:22.438Z,101289.38
2022-09-23T17:51:02.139Z,101290.34
2022-09-23T17:53:35.128Z,101279.94
2022-09-23T17:56:04.706Z,101285.94
2022-09-23T17:58:33.478Z,101279.28
2022-09-23T18:01:01.108Z,101283.59
2022-09-23T18:03:29.867Z,101289.53
2022-09-23T18:06:09.978Z,101294.75
2022-09-23T18:08:36.772Z,101290.84
2022-09-23T18:11:15.311Z,101291.00
2022-09-23T18:13:42.347Z,101295.75
2022-09-23T18:16:09.065Z,101291.59
2022-09-23T18:18:35.753Z,101292.59
2022-09-23T18:21:04.279Z,101295.53
2022-09-23T18:23:31.028Z,101294.97
2022-09-23T18:25:57.700Z,101298.31
2022-09-23T18:28:24.370Z,101300.47
2022-09-23T18:30:55.030Z,101298.94
2022-09-23T18:33:22.905Z,101301.66
2022-09-23T18:35:52.409Z,101308.44
2022-09-23T18:38:19.408Z,101302.63
2022-09-23T18:40:51.034Z,101291.06
2022-09-23T18:43:19.904Z,101295.72
2022-09-23T18:45:58.294Z,101295.34
2022-09-23T18:48:45.043Z,101293.69
2022-09-23T18:51:13.834Z,101286.53
2022-09-23T18:53:41.653Z,101301.31
2022-09-23T18:56:10.720Z,101304.06
2022-09-23T18:58:38.092Z,101297.50
2022-09-23T19:01:07.252Z,101306.56
2022-09-23T19:03:35.149Z,101295.84
2022-09-23T19:06:09.349Z,101294.19
2022-09-23T19:08:36.998Z,101295.25
2022-09-23T19:11:06.505Z,101293.00
2022-09-23T19:13:34.580Z,101288.34
2022-09-23T19:16:22.923Z,101282.06
2022-09-23T19:18:50.348Z,101286.31
2022-09-23T19:21:20.393Z,101287.84
2022-09-23T19:24:03.513Z,101295.47
2022-09-23T19:26:35.333Z,101291.50
2022-09-23T19:29:04.388Z,101287.59
2022-09-23T19:31:34.324Z,101283.06
2022-09-23T19:34:03.079Z,101274.53
2022-09-23T19:36:34.895Z,101280.69
2022-09-23T19:39:15.167Z,101271.75
2022-09-23T19:41:41.726Z,101274.38
2022-09-23T19:44:08.453Z,101276.53
2022-09-23T19:46:37.212Z,101276.03
2022-09-23T19:49:05.374Z,101276.28
2022-09-23T19:51:34.099Z,101274.25
2022-09-23T19:54:02.109Z,101278.88
2022-09-23T19:56:29.836Z,101273.06
2022-09-23T19:58:57.153Z,101271.63
2022-09-23T20:01:25.169Z,101270.19
2022-09-23T20:03:51.728Z,101271.50
2022-09-23T20:06:18.353Z,101263.78
2022-09-23T20:08:45.535Z,101266.75
2022-09-23T20:11:15.022Z,101271.00
2022-09-23T20:13:44.228Z,101270.66
2022-09-23T20:16:13.640Z,101264.81
2022-09-23T20:18:41.380Z,101263.16
2022-09-23T20:21:14.213Z,101270.84
2022-09-23T20:23:41.903Z,101268.59
2022-09-23T20:26:27.676Z,101265.75
2022-09-23T20:28:54.732Z,101257.41
2022-09-23T20:31:22.988Z,101252.06
2022-09-23T20:33:56.415Z,101250.38
2022-09-23T20:36:22.998Z,101247.41
2022-09-23T20:38:53.901Z,101245.41
2022-09-23T20:41:21.154Z,101240.00
2022-09-23T20:43:48.519Z,101241.78
2022-09-23T20:46:16.378Z,101243.09
2022-09-23T20:48:43.250Z,101241.66
2022-09-23T20:51:10.237Z,101240.22
2022-09-23T20:53:37.053Z,101242.56
2022-09-23T20:56:05.949Z,101235.66
2022-09-23T20:58:36.803Z,101231.50
2022-09-23T21:01:11.067Z,101232.34
2022-09-23T21:03:44.625Z,101226.28
2022-09-23T21:06:13.927Z,101228.06
2022-09-23T21:08:41.880Z,101219.72
2022-09-23T21:11:12.140Z,101222.06
2022-09-23T21:13:39.652Z,101220.84
2022-09-23T21:16:10.755Z,101216.31
2022-09-23T21:18:38.371Z,101220.56
2022-09-23T21:21:06.021Z,101214.94
2022-09-23T21:23:38.247Z,101211.38
2022-09-23T21:26:11.062Z,101213.13
2022-09-23T21:28:42.987Z,101207.97
2022-09-23T21:31:34.637Z,101212.84
2022-09-23T21:34:06.670Z,101214.94
2022-09-23T21:36:37.388Z,101212.22
2022-09-23T21:39:05.619Z,101205.84
2022-09-23T21:41:33.198Z,101220.03
2022-09-23T21:44:00.855Z,101216.22
2022-09-23T21:46:28.515Z,101218.88
2022-09-23T21:48:57.614Z,101213.50
2022-09-23T21:51:30.199Z,101216.16
2022-09-23T21:53:58.158Z,101222.06
2022-09-23T21:56:27.103Z,101218.50
2022-09-23T21:58:55.275Z,101217.19
2022-09-23T22:01:24.355Z,101218.06
2022-09-23T22:03:53.805Z,101226.69
2022-09-23T22:06:23.253Z,101231.94
2022-09-23T22:08:53.490Z,101227.53
2022-09-23T22:11:41.697Z,101227.69
2022-09-23T22:14:11.777Z,101229.13
2022-09-23T22:16:39.543Z,101224.72
2022-09-23T22:19:07.164Z,101229.94
2022-09-23T22:21:36.625Z,101214.34
2022-09-23T22:24:04.821Z,101226.16
2022-09-23T22:26:33.962Z,101212.38
2022-09-23T22:29:19.477Z,101221.03
2022-09-23T22:32:04.567Z,101218.28
2022-09-23T22:34:49.065Z,101219.56
2022-09-23T22:37:18.944Z,101219.34
2022-09-23T22:39:45.551Z,101212.38
2022-09-23T22:42:15.599Z,101214.94
2022-09-23T22:44:42.466Z,101212.44
2022-09-23T22:47:10.192Z,101213.75
2022-09-23T22:49:36.902Z,101212.06
2022-09-23T22:52:07.015Z,101210.41
2022-09-23T22:54:34.444Z,101214.19
2022-09-23T22:57:03.468Z,101216.91
2022-09-23T22:59:30.160Z,101215.41
2022-09-23T23:01:57.241Z,101217.53
2022-09-23T23:04:23.879Z,101210.78
2022-09-23T23:06:51.208Z,101207.66
2022-09-23T23:09:18.926Z,101209.34
2022-09-23T23:11:45.832Z,101203.13
2022-09-23T23:14:14.334Z,101208.81
2022-09-23T23:16:40.960Z,101213.34
2022-09-23T23:19:12.077Z,101211.09
2022-09-23T23:21:40.589Z,101200.03
2022-09-23T23:24:07.211Z,101204.41
2022-09-23T23:26:34.486Z,101201.31
2022-09-23T23:29:01.710Z,101205.34
2022-09-23T23:31:29.174Z,101204.34
2022-09-23T23:33:55.940Z,101202.06
2022-09-23T23:36:23.370Z,101212.66
2022-09-23T23:38:53.721Z,101205.03
2022-09-23T23:41:22.783Z,101200.84
2022-09-23T23:43:55.523Z,101205.84
2022-09-23T23:46:25.393Z,101202.69
2022-09-23T23:48:53.147Z,101200.78
2022-09-23T23:51:20.013Z,101208.13
2022-09-23T23:53:48.307Z,101203.50
2022-09-23T23:56:18.237Z,101200.84
2022-09-23T23:58:45.552Z,101204.63
